Time;durP1;ratioP1;P1;durP2;ratioP2;P2;SDS_P1;SDS_P2;PMS_P1;PMS_P2;Temp;Humidity;BMP_temperature;BMP_pressure;BME280_temperature;BME280_humidity;BME280_pressure;Samples;Min_cycle;Max_cycle;Signal;HPM_P1;HPM_P2
2024/02/22 00:01:48;;;;;;;0.60;0.60;;;;;;;6.15;100.00;97526.56;4983236;28;20046;-66
2024/02/22 00:04:15;;;;;;;0.60;0.60;;;;;;;6.25;100.00;97514.41;4982405;28;20065;-57
2024/02/22 00:06:43;;;;;;;0.60;0.60;;;;;;;6.33;100.00;97508.88;4982349;28;20161;-56
2024/02/22 00:09:09;;;;;;;0.60;0.60;;;;;;;6.32;100.00;97507.25;4981611;28;20058;-66
2024/02/22 00:11:36;;;;;;;0.52;0.52;;;;;;;6.34;100.00;97498.69;4982830;28;20047;-66
2024/02/22 00:14:03;;;;;;;0.57;0.57;;;;;;;6.40;100.00;97492.66;4962259;28;20178;-56
2024/02/22 00:16:30;;;;;;;0.60;0.60;;;;;;;6.36;99.67;97486.19;4963587;28;20054;-66
2024/02/22 00:18:57;;;;;;;0.60;0.60;;;;;;;6.31;99.33;97478.13;4963766;28;20146;-66
2024/02/22 00:21:24;;;;;;;0.52;0.52;;;;;;;6.33;99.16;97478.59;4962267;28;20146;-59
2024/02/22 00:23:50;;;;;;;0.60;0.60;;;;;;;6.26;99.03;97478.31;4963864;28;20050;-56
2024/02/22 00:26:17;;;;;;;0.50;0.50;;;;;;;6.28;97.53;97489.78;4963938;28;20500;-57
2024/02/22 00:28:44;;;;;;;0.50;0.50;;;;;;;6.13;98.17;97496.66;4963803;28;20137;-65
2024/02/22 00:31:11;;;;;;;0.50;0.50;;;;;;;5.75;98.93;97410.59;4963582;28;20617;-56
2024/02/22 00:33:37;;;;;;;0.60;0.60;;;;;;;5.73;99.32;97439.56;4963181;28;20098;-66
2024/02/22 00:36:05;;;;;;;0.50;0.50;;;;;;;6.00;100.00;97467.44;4963569;28;20066;-57
2024/02/22 00:38:32;;;;;;;0.50;0.50;;;;;;;5.96;99.87;97438.16;4963843;28;20079;-56
2024/02/22 00:40:59;;;;;;;0.52;0.52;;;;;;;5.64;99.87;97408.56;4963712;28;20047;-66
2024/02/22 00:43:26;;;;;;;0.60;0.60;;;;;;;6.06;100.00;97474.38;4963445;28;20106;-65
2024/02/22 00:45:52;;;;;;;0.55;0.55;;;;;;;6.06;100.00;97465.31;4961785;28;20093;-56
2024/02/22 00:48:19;;;;;;;0.50;0.50;;;;;;;6.05;99.48;97471.97;4963258;28;20065;-57
2024/02/22 00:50:46;;;;;;;0.50;0.50;;;;;;;6.02;98.76;97461.63;4961611;28;20525;-57
2024/02/22 00:53:13;;;;;;;0.50;0.50;;;;;;;5.53;99.46;97407.31;4963560;28;20046;-66
2024/02/22 00:55:40;;;;;;;0.50;0.50;;;;;;;5.76;99.53;97461.69;4963989;28;20061;-66
2024/02/22 00:58:07;;;;;;;0.50;0.50;;;;;;;5.78;99.78;97458.63;4964746;28;20089;-57
2024/02/22 01:00:35;;;;;;;0.52;0.52;;;;;;;5.65;99.41;97432.16;4967091;28;20062;-66
2024/02/22 01:03:04;;;;;;;0.50;0.50;;;;;;;5.68;99.58;97447.97;4965415;28;20051;-56
2024/02/22 01:05:31;;;;;;;0.50;0.50;;;;;;;5.35;100.00;97401.06;4966676;28;20060;-56
2024/02/22 01:07:59;;;;;;;0.50;0.50;;;;;;;5.42;100.00;97425.28;4966249;28;20078;-66
2024/02/22 01:10:25;;;;;;;0.50;0.50;;;;;;;5.52;100.00;97461.44;4966314;28;20051;-66
2024/02/22 01:12:52;;;;;;;0.47;0.47;;;;;;;5.41;100.00;97442.88;4964704;28;20054;-57
2024/02/22 01:15:19;;;;;;;0.40;0.40;;;;;;;5.51;100.00;97443.34;4966356;28;20051;-66
2024/02/22 01:17:47;;;;;;;0.50;0.50;;;;;;;5.51;99.05;97437.03;4966419;28;20050;-66
2024/02/22 01:20:14;;;;;;;0.50;0.50;;;;;;;4.49;99.03;97312.59;4966997;28;20062;-57
2024/02/22 01:22:41;;;;;;;0.50;0.50;;;;;;;5.19;100.00;97415.63;4965682;28;20066;-66
2024/02/22 01:25:08;;;;;;;0.40;0.40;;;;;;;5.25;100.00;97434.34;4985677;28;20528;-66
2024/02/22 01:27:35;;;;;;;0.50;0.50;;;;;;;5.11;100.00;97417.28;4985780;28;20058;-66
2024/02/22 01:30:02;;;;;;;0.40;0.40;;;;;;;4.66;100.00;97350.97;4985418;28;20061;-66
2024/02/22 01:32:29;;;;;;;0.50;0.50;;;;;;;5.08;100.00;97425.34;4984998;28;20050;-66
2024/02/22 01:34:56;;;;;;;0.50;0.50;;;;;;;4.94;100.00;97411.00;4968085;28;20133;-57
2024/02/22 01:37:23;;;;;;;0.40;0.40;;;;;;;5.01;100.00;97423.09;4966193;28;20098;-57
2024/02/22 01:39:50;;;;;;;0.50;0.50;;;;;;;5.02;100.00;97418.41;4966241;28;20058;-66
2024/02/22 01:42:16;;;;;;;0.40;0.40;;;;;;;4.91;100.00;97428.13;4966387;28;20051;-57
2024/02/22 01:44:43;;;;;;;0.50;0.50;;;;;;;5.00;100.00;97431.66;4966024;28;20441;-57
2024/02/22 01:47:10;;;;;;;0.50;0.50;;;;;;;4.96;100.00;97427.97;4964978;28;20061;-66
2024/02/22 01:49:37;;;;;;;0.40;0.40;;;;;;;4.96;100.00;97425.22;4966147;28;20072;-56
2024/02/22 01:52:06;;;;;;;0.50;0.50;;;;;;;5.17;100.00;97426.16;4966021;28;20050;-66
2024/02/22 01:54:33;;;;;;;0.50;0.50;;;;;;;5.16;100.00;97417.09;4965970;28;20441;-66
2024/02/22 01:57:00;;;;;;;0.40;0.40;;;;;;;4.97;100.00;97377.41;4965947;28;20051;-56
2024/02/22 01:59:27;;;;;;;0.50;0.50;;;;;;;5.10;100.00;97421.16;4965593;28;20046;-66
2024/02/22 02:01:55;;;;;;;0.40;0.40;;;;;;;5.11;100.00;97413.72;4965705;28;20534;-66
2024/02/22 02:04:23;;;;;;;0.40;0.40;;;;;;;5.24;100.00;97421.78;4966391;28;20055;-58
2024/02/22 02:06:50;;;;;;;0.50;0.50;;;;;;;5.33;99.84;97419.81;4964729;28;20055;-66
2024/02/22 02:09:17;;;;;;;0.50;0.50;;;;;;;5.23;99.87;97419.34;4965110;28;20061;-66
2024/02/22 02:11:44;;;;;;;0.50;0.50;;;;;;;5.29;98.54;97407.88;4964813;28;20053;-58
2024/02/22 02:14:11;;;;;;;0.50;0.50;;;;;;;5.24;98.30;97415.47;4963748;28;20556;-66
2024/02/22 02:16:38;;;;;;;0.47;0.47;;;;;;;4.57;99.02;97327.44;4965592;28;20050;-66
2024/02/22 02:19:08;;;;;;;0.50;0.50;;;;;;;4.99;99.16;97408.09;4965531;28;20345;-66
2024/02/22 02:21:54;;;;;;;0.50;0.50;;;;;;;4.93;99.28;97403.91;4965326;28;20065;-66
2024/02/22 02:24:29;;;;;;;0.50;0.50;;;;;;;4.77;100.00;97405.53;4975288;28;20477;-56
2024/02/22 02:26:56;;;;;;;0.50;0.50;;;;;;;4.68;100.00;97423.94;4983079;28;20089;-65
2024/02/22 02:29:24;;;;;;;0.40;0.40;;;;;;;4.78;99.54;97407.94;4984176;28;20058;-57
2024/02/22 02:31:51;;;;;;;0.40;0.40;;;;;;;4.81;99.26;97407.31;4984779;28;20057;-66
2024/02/22 02:34:18;;;;;;;0.50;0.50;;;;;;;4.65;99.06;97412.47;4984969;28;20065;-66
2024/02/22 02:36:44;;;;;;;0.50;0.50;;;;;;;4.47;99.71;97413.59;4983333;28;20077;-65
2024/02/22 02:39:11;;;;;;;0.47;0.47;;;;;;;4.36;99.41;97397.81;4983037;28;20054;-56
2024/02/22 02:41:38;;;;;;;0.40;0.40;;;;;;;4.23;100.00;97407.78;4980906;28;20055;-66
2024/02/22 02:44:05;;;;;;;0.40;0.40;;;;;;;4.21;100.00;97415.53;4965597;28;20057;-60
2024/02/22 02:46:32;;;;;;;0.40;0.40;;;;;;;3.41;100.00;97291.91;4963413;28;20055;-63
2024/02/22 02:48:59;;;;;;;0.47;0.47;;;;;;;4.22;100.00;97411.63;4962893;28;20541;-64
2024/02/22 02:51:26;;;;;;;0.50;0.50;;;;;;;3.62;100.00;97347.69;4962891;28;20961;-55
2024/02/22 02:53:53;;;;;;;0.40;0.40;;;;;;;4.12;100.00;97414.72;4963884;28;20500;-55
2024/02/22 02:56:20;;;;;;;0.40;0.40;;;;;;;4.09;100.00;97407.13;4964546;28;20073;-65
2024/02/22 02:58:47;;;;;;;0.40;0.40;;;;;;;4.07;100.00;97414.84;4964736;28;20158;-55
2024/02/22 03:01:14;;;;;;;0.40;0.40;;;;;;;4.17;99.82;97413.75;4964409;28;20065;-55
2024/02/22 03:03:41;;;;;;;0.40;0.40;;;;;;;4.12;98.90;97416.63;4964313;28;20125;-56
2024/02/22 03:06:08;;;;;;;0.40;0.40;;;;;;;4.02;99.03;97422.41;4964712;28;20066;-58
2024/02/22 03:08:35;;;;;;;0.40;0.40;;;;;;;3.54;99.73;97362.16;4964417;28;20058;-64
2024/02/22 03:11:02;;;;;;;0.40;0.40;;;;;;;3.44;100.00;97367.94;4964505;28;20050;-64
2024/02/22 03:13:29;;;;;;;0.40;0.40;;;;;;;3.70;100.00;97392.69;4964533;28;20054;-64
2024/02/22 03:15:56;;;;;;;0.40;0.40;;;;;;;3.89;100.00;97418.66;4964270;28;20138;-64
2024/02/22 03:18:25;;;;;;;0.40;0.40;;;;;;;3.84;100.00;97410.59;4964108;28;20070;-55
2024/02/22 03:20:53;;;;;;;0.40;0.40;;;;;;;3.73;100.00;97413.97;4964146;28;20051;-55
2024/02/22 03:23:20;;;;;;;0.40;0.40;;;;;;;3.68;100.00;97417.66;4966499;28;20066;-55
2024/02/22 03:25:47;;;;;;;0.38;0.38;;;;;;;3.58;100.00;97385.06;4984145;28;20066;-55
2024/02/22 03:28:14;;;;;;;0.40;0.40;;;;;;;3.76;100.00;97416.84;4982706;28;20419;-57
2024/02/22 03:30:41;;;;;;;0.40;0.40;;;;;;;3.61;100.00;97389.91;4983077;28;20505;-57
2024/02/22 03:33:08;;;;;;;0.40;0.40;;;;;;;3.56;100.00;97395.50;4976130;28;20377;-64
2024/02/22 03:35:37;;;;;;;0.40;0.40;;;;;;;3.50;100.00;97409.66;4963755;28;20521;-54
2024/02/22 03:38:04;;;;;;;0.43;0.43;;;;;;;3.57;100.00;97426.47;4963731;28;20054;-55
2024/02/22 03:40:31;;;;;;;0.40;0.40;;;;;;;3.18;100.00;97386.16;4963713;28;20534;-64
2024/02/22 03:42:58;;;;;;;0.40;0.40;;;;;;;3.35;100.00;97424.56;4964315;28;20062;-64
2024/02/22 03:45:24;;;;;;;0.40;0.40;;;;;;;3.28;100.00;97424.22;4963703;28;20062;-64
2024/02/22 03:47:52;;;;;;;0.40;0.40;;;;;;;3.23;100.00;97426.28;4964119;28;20050;-64
2024/02/22 03:50:19;;;;;;;0.40;0.40;;;;;;;3.23;100.00;97413.41;4962110;28;20445;-55
2024/02/22 03:52:46;;;;;;;0.40;0.40;;;;;;;3.23;100.00;97427.09;4964012;28;20086;-55
2024/02/22 03:55:13;;;;;;;0.40;0.40;;;;;;;3.19;100.00;97437.06;4963446;28;20121;-55
2024/02/22 03:57:39;;;;;;;0.40;0.40;;;;;;;2.79;99.74;97372.44;4963734;28;20054;-56
2024/02/22 04:00:08;;;;;;;0.40;0.40;;;;;;;3.13;100.00;97424.59;4963550;28;20055;-55
2024/02/22 04:02:34;;;;;;;0.40;0.40;;;;;;;3.08;100.00;97427.50;4963933;28;20047;-55
2024/02/22 04:05:03;;;;;;;0.40;0.40;;;;;;;3.00;100.00;97425.53;4963898;28;20057;-64
2024/02/22 04:07:30;;;;;;;0.40;0.40;;;;;;;3.04;100.00;97435.53;4963435;28;20079;-64
2024/02/22 04:09:57;;;;;;;0.40;0.40;;;;;;;3.05;100.00;97433.59;4962235;28;20069;-55
2024/02/22 04:12:24;;;;;;;0.40;0.40;;;;;;;2.91;100.00;97402.75;4964363;28;20498;-55
2024/02/22 04:14:50;;;;;;;0.40;0.40;;;;;;;3.02;100.00;97421.34;4964295;28;20055;-64
2024/02/22 04:17:18;;;;;;;0.30;0.30;;;;;;;2.36;100.00;97346.72;4964390;28;20053;-64
2024/02/22 04:19:45;;;;;;;0.40;0.40;;;;;;;2.85;100.00;97420.41;4962507;28;20055;-64
2024/02/22 04:22:11;;;;;;;0.40;0.40;;;;;;;2.84;100.00;97427.00;4962330;28;20494;-55
2024/02/22 04:24:40;;;;;;;0.40;0.40;;;;;;;2.86;100.00;97427.53;4963120;28;20114;-64
2024/02/22 04:27:06;;;;;;;0.40;0.40;;;;;;;2.58;100.00;97396.75;4963276;28;20463;-56
2024/02/22 04:29:35;;;;;;;0.30;0.30;;;;;;;2.84;100.00;97413.34;4963309;28;20542;-56
2024/02/22 04:32:02;;;;;;;0.40;0.40;;;;;;;2.81;100.00;97414.75;4962052;28;20058;-63
2024/02/22 04:34:29;;;;;;;0.40;0.40;;;;;;;2.76;100.00;97416.81;4965613;28;20121;-56
2024/02/22 04:36:56;;;;;;;0.40;0.40;;;;;;;2.86;100.00;97422.03;4967605;28;20346;-64
2024/02/22 04:39:23;;;;;;;0.40;0.40;;;;;;;2.87;100.00;97418.19;4966965;28;20051;-65
2024/02/22 04:41:50;;;;;;;0.40;0.40;;;;;;;2.61;100.00;97392.56;4967204;28;20058;-56
2024/02/22 04:44:17;;;;;;;0.40;0.40;;;;;;;2.78;100.00;97414.59;4967445;28;20114;-56
2024/02/22 04:46:44;;;;;;;0.40;0.40;;;;;;;2.57;100.00;97386.94;4967514;28;20061;-56
2024/02/22 04:49:11;;;;;;;0.35;0.35;;;;;;;2.65;100.00;97404.50;4966938;28;20112;-56
2024/02/22 04:51:40;;;;;;;0.40;0.40;;;;;;;2.67;100.00;97399.53;4966649;28;20160;-56
2024/02/22 04:54:07;;;;;;;0.40;0.40;;;;;;;2.66;100.00;97406.13;4965898;28;20059;-57
2024/02/22 04:56:33;;;;;;;0.40;0.40;;;;;;;2.57;100.00;97408.00;4966931;28;20158;-64
2024/02/22 04:59:00;;;;;;;0.40;0.40;;;;;;;2.48;100.00;97424.31;4967028;28;20051;-56
2024/02/22 05:01:27;;;;;;;0.40;0.40;;;;;;;2.16;100.00;97385.47;4967289;28;20067;-56
2024/02/22 05:03:54;;;;;;;0.40;0.40;;;;;;;2.42;100.00;97444.69;4967611;28;20078;-62
2024/02/22 05:06:21;;;;;;;0.30;0.30;;;;;;;2.38;100.00;97416.38;4965522;28;20061;-63
2024/02/22 05:08:48;;;;;;;0.30;0.30;;;;;;;2.46;100.00;97423.00;4966227;28;20065;-56
2024/02/22 05:11:16;;;;;;;0.30;0.30;;;;;;;2.36;100.00;97425.97;4964933;28;20057;-64
2024/02/22 05:13:42;;;;;;;0.30;0.30;;;;;;;2.16;100.00;97426.44;4966649;28;20447;-63
2024/02/22 05:16:10;;;;;;;0.40;0.40;;;;;;;2.14;100.00;97425.94;4966623;28;20141;-63
2024/02/22 05:18:40;;;;;;;0.40;0.40;;;;;;;2.32;100.00;97438.66;4965010;28;20086;-63
2024/02/22 05:21:08;;;;;;;0.30;0.30;;;;;;;2.31;100.00;97410.50;4966425;28;20145;-55
2024/02/22 05:23:35;;;;;;;0.30;0.30;;;;;;;2.47;100.00;97424.63;4968724;28;20055;-56
2024/02/22 05:26:01;;;;;;;0.30;0.30;;;;;;;2.37;100.00;97397.53;4985603;28;20109;-56
2024/02/22 05:28:28;;;;;;;0.40;0.40;;;;;;;2.33;100.00;97385.59;4985790;28;20394;-56
2024/02/22 05:30:55;;;;;;;0.30;0.30;;;;;;;2.65;100.00;97432.69;4984830;28;20479;-56
2024/02/22 05:33:22;;;;;;;0.30;0.30;;;;;;;2.66;99.25;97433.47;5000290;28;20504;-64
2024/02/22 05:35:49;;;;;;;0.40;0.40;;;;;;;2.57;98.95;97416.19;4982946;28;20385;-56
2024/02/22 05:38:15;;;;;;;0.30;0.30;;;;;;;2.77;98.69;97429.38;4985307;28;20064;-63
2024/02/22 05:40:42;;;;;;;0.35;0.35;;;;;;;2.75;98.66;97437.09;4984930;28;20050;-63
2024/02/22 05:43:10;;;;;;;0.40;0.40;;;;;;;2.26;98.59;97346.97;4986199;28;20069;-58
2024/02/22 05:45:43;;;;;;;0.40;0.40;;;;;;;2.34;98.41;97340.78;4981676;28;20271;-64
2024/02/22 05:48:11;;;;;;;0.40;0.40;;;;;;;2.13;97.89;97342.34;4980203;28;20050;-64
2024/02/22 05:50:39;;;;;;;0.40;0.40;;;;;;;3.02;98.25;97436.94;4979736;28;20059;-57
2024/02/22 05:53:06;;;;;;;0.40;0.40;;;;;;;3.06;98.69;97438.75;4966001;28;20429;-64
2024/02/22 05:55:33;;;;;;;0.40;0.40;;;;;;;3.23;99.43;97443.50;4964693;28;20066;-56
2024/02/22 05:57:59;;;;;;;0.40;0.40;;;;;;;3.31;98.45;97437.28;4965183;28;20081;-55
2024/02/22 06:00:26;;;;;;;0.30;0.30;;;;;;;3.33;98.36;97426.84;4964494;28;20043;-59
2024/02/22 06:02:53;;;;;;;0.40;0.40;;;;;;;3.47;98.96;97443.97;4963238;28;20046;-64
2024/02/22 06:05:20;;;;;;;0.40;0.40;;;;;;;3.67;98.25;97443.41;4964382;28;20051;-56
2024/02/22 06:07:47;;;;;;;0.40;0.40;;;;;;;3.90;95.87;97441.41;4964354;28;20151;-56
2024/02/22 06:10:14;;;;;;;0.40;0.40;;;;;;;3.43;95.71;97366.31;4965263;28;20062;-64
2024/02/22 06:12:42;;;;;;;0.50;0.50;;;;;;;3.60;95.83;97382.81;4965676;28;20050;-63
2024/02/22 06:15:10;;;;;;;0.50;0.50;;;;;;;4.12;95.95;97516.13;4965545;28;20105;-56
2024/02/22 06:17:36;;;;;;;0.40;0.40;;;;;;;4.21;96.53;97422.94;4965743;28;20146;-64
2024/02/22 06:20:05;;;;;;;0.50;0.50;;;;;;;4.48;96.61;97448.16;4965392;28;20074;-56
2024/02/22 06:22:33;;;;;;;0.50;0.50;;;;;;;4.28;96.41;97393.91;4965410;28;20050;-56
2024/02/22 06:25:01;;;;;;;0.50;0.50;;;;;;;4.82;96.84;97452.03;4977203;28;20061;-58
2024/02/22 06:27:28;;;;;;;0.50;0.50;;;;;;;4.17;95.57;97320.53;4983073;28;20064;-57
2024/02/22 06:29:55;;;;;;;0.50;0.50;;;;;;;5.12;93.42;97456.53;4984381;28;20161;-64
2024/02/22 06:32:23;;;;;;;0.50;0.50;;;;;;;5.26;93.35;97465.38;4984444;28;20089;-56
2024/02/22 06:34:51;;;;;;;0.60;0.60;;;;;;;5.01;92.84;97406.63;4984173;28;20058;-64
2024/02/22 06:37:18;;;;;;;0.50;0.50;;;;;;;5.40;91.12;97457.75;4984176;28;20148;-59
2024/02/22 06:39:45;;;;;;;0.50;0.50;;;;;;;5.51;90.46;97464.53;4983822;28;20137;-63
2024/02/22 06:42:12;;;;;;;0.50;0.50;;;;;;;5.16;90.00;97408.06;4984274;28;20046;-63
2024/02/22 06:44:39;;;;;;;0.50;0.50;;;;;;;5.74;90.91;97454.91;4984394;28;20065;-64
2024/02/22 06:47:06;;;;;;;0.50;0.50;;;;;;;5.69;87.64;97461.38;4984211;28;20153;-56
2024/02/22 06:49:33;;;;;;;0.50;0.50;;;;;;;5.67;87.31;97455.44;4983899;28;20060;-63
2024/02/22 06:52:00;;;;;;;0.60;0.60;;;;;;;5.71;88.55;97452.81;4982470;28;20046;-63
2024/02/22 06:54:28;;;;;;;0.50;0.50;;;;;;;5.81;88.16;97446.97;4982685;28;20050;-56
2024/02/22 06:56:57;;;;;;;0.60;0.60;;;;;;;6.03;88.21;97454.97;4984303;28;20129;-63
2024/02/22 06:59:24;;;;;;;0.60;0.60;;;;;;;6.15;87.81;97452.31;4983920;28;20085;-56
2024/02/22 07:01:51;;;;;;;0.50;0.50;;;;;;;6.32;87.61;97454.19;4982382;28;20065;-56
2024/02/22 07:04:18;;;;;;;0.60;0.60;;;;;;;6.35;86.75;97457.06;4983422;28;20647;-62
2024/02/22 07:06:44;;;;;;;0.60;0.60;;;;;;;6.64;85.54;97459.78;4980416;28;20050;-67
2024/02/22 07:09:11;;;;;;;0.60;0.60;;;;;;;6.73;84.57;97529.38;4981446;28;20392;-56
2024/02/22 07:11:38;;;;;;;0.60;0.60;;;;;;;6.73;84.22;97460.53;4982950;28;20053;-64
2024/02/22 07:14:05;;;;;;;0.60;0.60;;;;;;;6.76;83.54;97429.59;4975294;28;20057;-63
2024/02/22 07:16:33;;;;;;;0.60;0.60;;;;;;;6.62;83.74;97390.53;4979026;28;20109;-63
2024/02/22 07:19:00;;;;;;;0.60;0.60;;;;;;;7.07;83.64;97402.41;4973186;28;20500;-55
2024/02/22 07:21:34;;;;;;;0.60;0.60;;;;;;;7.44;82.89;97439.97;4964796;28;20510;-67
2024/02/22 07:24:03;;;;;;;0.60;0.60;;;;;;;7.48;82.62;97402.28;4973416;28;20050;-64
2024/02/22 07:26:31;;;;;;;0.68;0.68;;;;;;;7.99;81.52;97449.69;4977308;28;20101;-60
2024/02/22 07:28:58;;;;;;;0.63;0.63;;;;;;;8.18;80.42;97441.66;4976479;28;20050;-54
2024/02/22 07:31:26;;;;;;;0.60;0.60;;;;;;;8.26;79.97;97444.34;4963869;28;20105;-61
2024/02/22 07:33:53;;;;;;;0.70;0.70;;;;;;;8.09;80.62;97372.81;4964685;28;20157;-60
2024/02/22 07:36:21;;;;;;;0.70;0.70;;;;;;;8.77;79.15;97431.72;4976668;28;20376;-62
2024/02/22 07:38:47;;;;;;;0.70;0.70;;;;;;;8.78;78.87;97433.34;4982065;28;20054;-60
2024/02/22 07:41:17;;;;;;;0.70;0.70;;;;;;;8.31;78.64;97324.63;4972228;28;20069;-68
2024/02/22 07:43:45;;;;;;;0.70;0.70;;;;;;;8.99;77.56;97433.97;4967704;28;20515;-59
2024/02/22 07:46:13;;;;;;;0.80;0.80;;;;;;;9.10;77.51;97435.09;4980737;28;20061;-63
2024/02/22 07:48:43;;;;;;;0.80;0.80;;;;;;;9.08;78.01;97426.34;4966415;28;20460;-62
2024/02/22 07:51:10;;;;;;;0.70;0.70;;;;;;;8.95;77.56;97399.91;4978977;28;20050;-59
2024/02/22 07:53:37;;;;;;;0.73;0.73;;;;;;;9.21;77.08;97419.59;4979796;28;20054;-60
2024/02/22 07:56:07;;;;;;;0.80;0.80;;;;;;;9.37;77.04;97423.22;4972092;28;20061;-59
2024/02/22 07:58:49;;;;;;;0.80;0.80;;;;;;;9.57;77.63;97424.94;4975117;28;20070;-68
2024/02/22 08:01:16;;;;;;;0.70;0.70;;;;;;;9.63;77.19;97420.75;4963589;28;20512;-62
2024/02/22 08:03:44;;;;;;;0.80;0.80;;;;;;;9.20;76.43;97341.41;4968122;28;20053;-60
2024/02/22 08:06:12;;;;;;;0.80;0.80;;;;;;;9.66;77.47;97405.44;4980763;28;20054;-66
2024/02/22 08:08:40;;;;;;;0.73;0.73;;;;;;;9.66;76.89;97402.66;4974711;28;20586;-58
2024/02/22 08:11:07;;;;;;;0.80;0.80;;;;;;;9.88;76.40;97402.06;4971314;28;20061;-67
2024/02/22 08:13:34;;;;;;;0.80;0.80;;;;;;;9.34;75.29;97307.81;4969872;28;20057;-60
2024/02/22 08:16:06;;;;;;;0.80;0.80;;;;;;;9.62;74.38;97408.09;4976038;28;20047;-66
2024/02/22 08:18:38;;;;;;;0.80;0.80;;;;;;;9.83;75.87;97403.09;4934760;28;5002698;-56
2024/02/22 08:21:08;;;;;;;0.80;0.80;;;;;;;10.04;75.57;97402.81;4969984;28;20129;-56
2024/02/22 08:23:35;;;;;;;0.80;0.80;;;;;;;10.10;73.58;97424.38;4969785;28;20522;-55
2024/02/22 08:26:03;;;;;;;0.80;0.80;;;;;;;10.27;71.71;97401.88;4977336;28;20046;-65
2024/02/22 08:28:30;;;;;;;0.80;0.80;;;;;;;10.10;72.50;97401.44;4981446;28;20064;-64
2024/02/22 08:30:57;;;;;;;0.73;0.73;;;;;;;10.09;71.10;97372.97;4981676;28;20057;-57
2024/02/22 08:33:25;;;;;;;0.80;0.80;;;;;;;9.36;74.22;97409.75;4979867;28;20061;-58
2024/02/22 08:35:56;;;;;;;0.70;0.70;;;;;;;9.32;77.15;97403.31;4967717;28;20050;-63
2024/02/22 08:38:25;;;;;;;0.80;0.80;;;;;;;9.38;76.18;97401.88;4980290;28;20054;-58
2024/02/22 08:40:53;;;;;;;0.80;0.80;;;;;;;9.80;76.14;97381.69;4977943;28;20054;-64
2024/02/22 08:43:20;;;;;;;0.80;0.80;;;;;;;9.78;73.05;97400.63;4982760;28;20054;-56
2024/02/22 08:45:48;;;;;;;0.80;0.80;;;;;;;9.23;74.10;97339.91;4985106;28;20636;-66
2024/02/22 08:48:15;;;;;;;0.80;0.80;;;;;;;9.31;74.98;97336.16;4971564;28;20062;-58
2024/02/22 08:50:42;;;;;;;0.80;0.80;;;;;;;10.13;72.88;97407.06;4979299;28;20133;-59
2024/02/22 08:53:09;;;;;;;0.80;0.80;;;;;;;10.43;71.85;97399.84;4999026;28;20053;-65
2024/02/22 08:55:36;;;;;;;0.80;0.80;;;;;;;8.65;68.38;97072.78;4989529;28;20055;-56
2024/02/22 08:58:03;;;;;;;0.85;0.85;;;;;;;11.03;67.75;97394.84;4970680;28;20054;-58
2024/02/22 09:00:30;;;;;;;0.90;0.90;;;;;;;11.10;66.77;97347.84;4981802;28;20058;-70
2024/02/22 09:02:56;;;;;;;0.90;0.90;;;;;;;11.65;65.58;97395.31;4968054;28;20132;-62
2024/02/22 09:05:23;;;;;;;0.90;0.90;;;;;;;11.89;63.54;97394.16;4969885;28;20058;-64
2024/02/22 09:07:50;;;;;;;1.00;1.00;;;;;;;11.88;62.63;97348.97;4981312;28;20066;-54
2024/02/22 09:10:18;;;;;;;1.10;1.10;;;;;;;12.29;62.09;97391.66;4975579;28;20058;-68
2024/02/22 09:12:45;;;;;;;1.10;1.10;;;;;;;12.30;60.79;97387.69;4979314;28;20054;-68
2024/02/22 09:15:12;;;;;;;0.90;0.90;;;;;;;12.30;61.12;97365.47;4988358;28;20046;-64
2024/02/22 09:17:39;;;;;;;0.95;0.95;;;;;;;12.16;59.40;97318.06;4984033;28;20050;-57
2024/02/22 09:20:06;;;;;;;1.05;1.05;;;;;;;12.29;59.13;97326.97;4982733;28;20066;-57
2024/02/22 09:22:33;;;;;;;1.10;1.10;;;;;;;12.76;58.84;97378.06;4981844;28;20112;-62
2024/02/22 09:25:00;;;;;;;1.13;1.13;;;;;;;12.65;59.43;97377.13;4981860;28;20050;-63
2024/02/22 09:27:32;;;;;;;1.10;1.10;;;;;;;12.71;58.05;97364.50;4983631;28;20520;-56
2024/02/22 09:30:01;;;;;;;1.10;1.10;;;;;;;12.80;57.50;97378.13;4984124;28;20054;-57
2024/02/22 09:32:28;;;;;;;1.10;1.10;;;;;;;12.85;58.76;97367.47;4983563;28;20596;-56
2024/02/22 09:34:55;;;;;;;0.98;0.98;;;;;;;11.89;57.61;97371.94;4984718;28;20058;-55
2024/02/22 09:37:22;;;;;;;1.00;1.00;;;;;;;11.78;59.65;97366.22;4983250;28;20094;-62
2024/02/22 09:39:50;;;;;;;0.90;0.90;;;;;;;11.42;59.81;97269.63;4984674;28;20051;-57
2024/02/22 09:42:18;;;;;;;0.95;0.95;;;;;;;12.16;58.00;97370.81;4983569;28;20054;-56
2024/02/22 09:44:46;;;;;;;0.95;0.95;;;;;;;12.10;58.37;97338.97;4984135;28;20046;-57
2024/02/22 09:47:15;;;;;;;1.00;1.00;;;;;;;12.17;57.18;97323.22;4985025;28;20069;-63
2024/02/22 09:49:42;;;;;;;1.00;1.00;;;;;;;12.25;57.22;97335.25;4984004;28;20060;-62
2024/02/22 09:52:12;;;;;;;1.00;1.00;;;;;;;12.29;55.86;97296.41;4985214;28;20432;-58
2024/02/22 09:54:39;;;;;;;1.00;1.00;;;;;;;12.61;57.17;97331.81;4985013;28;20102;-63
2024/02/22 09:57:06;;;;;;;0.90;0.90;;;;;;;12.68;58.25;97331.09;4984442;28;20066;-56
2024/02/22 09:59:33;;;;;;;1.02;1.02;;;;;;;12.91;56.86;97321.50;4984307;28;20054;-64
2024/02/22 10:02:05;;;;;;;1.10;1.10;;;;;;;13.36;56.42;97323.22;4981435;28;20062;-63
2024/02/22 10:04:32;;;;;;;1.05;1.05;;;;;;;13.41;54.63;97281.94;4991475;28;20324;-63
2024/02/22 10:07:00;;;;;;;1.10;1.10;;;;;;;12.60;52.98;97173.78;4984493;28;20140;-55
2024/02/22 10:09:28;;;;;;;1.20;1.20;;;;;;;13.73;54.48;97312.84;4984474;28;20092;-56
2024/02/22 10:11:55;;;;;;;1.15;1.15;;;;;;;13.82;54.44;97310.53;4982758;28;20065;-63
2024/02/22 10:14:22;;;;;;;1.25;1.25;;;;;;;13.94;53.95;97303.88;4981896;28;20058;-56
2024/02/22 10:16:49;;;;;;;1.20;1.20;;;;;;;13.89;52.91;97301.44;4982974;28;20074;-63
2024/02/22 10:19:15;;;;;;;1.17;1.17;;;;;;;13.81;54.20;97294.22;4980689;28;20062;-63
2024/02/22 10:21:44;;;;;;;1.10;1.10;;;;;;;13.44;54.08;97202.44;4982324;28;20050;-59
2024/02/22 10:24:12;;;;;;;1.38;1.38;;;;;;;14.40;51.09;97288.31;4984377;28;20054;-63
2024/02/22 10:26:39;;;;;;;1.20;1.20;;;;;;;14.45;49.60;97262.84;4984600;28;20109;-63
2024/02/22 10:29:11;;;;;;;1.13;1.13;;;;;;;13.77;48.91;97271.13;4975950;28;20101;-61
2024/02/22 10:31:45;;;;;;;1.10;1.10;;;;;;;14.25;48.54;97267.13;4964740;28;20054;-57
2024/02/22 10:34:13;;;;;;;1.20;1.20;;;;;;;13.74;49.27;97150.19;4964742;28;20081;-57
2024/02/22 10:36:42;;;;;;;1.20;1.20;;;;;;;14.05;49.07;97205.28;4969875;28;20054;-63
2024/02/22 10:39:13;;;;;;;1.23;1.23;;;;;;;14.58;48.77;97255.75;4982718;28;20058;-56
2024/02/22 10:41:40;;;;;;;1.20;1.20;;;;;;;14.32;46.73;97212.22;4983833;28;20050;-63
2024/02/22 10:44:07;;;;;;;1.20;1.20;;;;;;;14.52;47.10;97235.00;4984302;28;20054;-56
2024/02/22 10:46:38;;;;;;;1.25;1.25;;;;;;;14.57;48.63;97235.44;4983407;28;20057;-58
2024/02/22 10:49:11;;;;;;;1.20;1.20;;;;;;;14.52;47.87;97184.84;4983490;28;20395;-63
2024/02/22 10:51:40;;;;;;;1.30;1.30;;;;;;;14.79;47.07;97227.97;4983596;28;20057;-57
2024/02/22 10:54:12;;;;;;;1.20;1.20;;;;;;;14.61;47.86;97291.22;4999823;28;20575;-63
2024/02/22 10:56:44;;;;;;;1.30;1.30;;;;;;;14.64;46.62;97223.50;4997898;28;20050;-64
2024/02/22 10:59:14;;;;;;;1.20;1.20;;;;;;;14.20;46.14;97128.13;4982783;28;20046;-63
2024/02/22 11:01:42;;;;;;;1.20;1.20;;;;;;;14.89;45.52;97218.84;4984130;28;20078;-57
2024/02/22 11:04:11;;;;;;;1.00;1.00;;;;;;;13.84;45.36;97191.22;4983484;28;20178;-56
2024/02/22 11:06:39;;;;;;;1.20;1.20;;;;;;;14.24;45.51;97223.69;4981905;28;20046;-63
2024/02/22 11:09:20;;;;;;;1.20;1.20;;;;;;;13.74;42.44;97205.84;4979194;28;20052;-56
2024/02/22 11:11:54;;;;;;;1.20;1.20;;;;;;;13.80;44.15;97206.31;4982902;28;20058;-63
2024/02/22 11:14:30;;;;;;;1.00;1.00;;;;;;;13.82;42.96;97195.56;4977809;28;20053;-56
2024/02/22 11:17:05;;;;;;;0.93;0.93;;;;;;;13.89;43.52;97195.63;4981223;28;20060;-65
2024/02/22 11:19:33;;;;;;;1.20;1.20;;;;;;;14.04;41.42;97183.38;4973361;28;20058;-62
2024/02/22 11:22:00;;;;;;;1.20;1.20;;;;;;;13.51;41.30;97080.84;4970394;28;20050;-57
2024/02/22 11:24:27;;;;;;;1.20;1.20;;;;;;;13.75;42.20;97148.19;4964664;28;20051;-59
2024/02/22 11:26:56;;;;;;;1.10;1.10;;;;;;;13.49;42.14;97138.88;4966584;28;20046;-63
2024/02/22 11:29:34;;;;;;;1.10;1.10;;;;;;;13.83;41.70;97174.91;4969834;28;20062;-67
2024/02/22 11:32:03;;;;;;;1.10;1.10;;;;;;;13.64;42.03;97178.75;4972411;28;20054;-58
2024/02/22 11:34:31;;;;;;;1.20;1.20;;;;;;;13.35;42.41;97161.03;4981222;28;20050;-63
2024/02/22 11:37:18;;;;;;;1.00;1.00;;;;;;;13.33;42.34;97165.38;4990951;28;20047;-63
2024/02/22 11:39:58;;;;;;;1.00;1.00;;;;;;;12.72;42.38;97076.22;4982523;28;20054;-63